createdAt,value
2022-11-03T00:02:11.550Z,8.90
2022-11-03T00:04:38.748Z,8.88
2022-11-03T00:07:05.864Z,8.84
2022-11-03T00:09:32.997Z,8.83
2022-11-03T00:12:00.453Z,8.78
2022-11-03T00:14:28.154Z,8.77
2022-11-03T00:16:55.503Z,8.75
2022-11-03T00:19:22.603Z,8.74
2022-11-03T00:21:50.157Z,8.74
2022-11-03T00:24:17.233Z,8.70
2022-11-03T00:26:44.385Z,8.70
2022-11-03T00:29:14.985Z,8.69
2022-11-03T00:31:44.511Z,8.71
2022-11-03T00:34:12.024Z,8.66
2022-11-03T00:36:41.505Z,8.63
2022-11-03T00:39:09.424Z,8.58
2022-11-03T00:41:37.160Z,8.59
2022-11-03T00:44:04.484Z,8.55
2022-11-03T00:46:35.635Z,8.54
2022-11-03T00:49:04.910Z,8.53
2022-11-03T00:51:32.132Z,8.52
2022-11-03T00:54:01.071Z,8.50
2022-11-03T00:56:34.153Z,8.46
2022-11-03T00:59:02.996Z,8.39
2022-11-03T01:01:42.308Z,8.36
2022-11-03T01:04:30.743Z,8.38
2022-11-03T01:06:59.968Z,8.37
2022-11-03T01:09:30.167Z,8.34
2022-11-03T01:12:03.510Z,8.33
2022-11-03T01:14:48.279Z,8.33
2022-11-03T01:17:18.570Z,8.30
2022-11-03T01:19:46.432Z,8.28
2022-11-03T01:22:14.270Z,8.27
2022-11-03T01:24:42.335Z,8.23
2022-11-03T01:27:11.281Z,8.24
2022-11-03T01:29:38.437Z,8.21
2022-11-03T01:32:05.904Z,8.22
2022-11-03T01:34:33.014Z,8.24
2022-11-03T01:37:00.286Z,8.22
2022-11-03T01:39:27.370Z,8.15
2022-11-03T01:41:54.623Z,8.11
2022-11-03T01:44:37.287Z,8.11
2022-11-03T01:47:25.188Z,8.09
2022-11-03T01:50:08.587Z,8.01
2022-11-03T01:52:43.160Z,8.00
2022-11-03T01:55:19.253Z,7.98
2022-11-03T01:57:56.214Z,7.97
2022-11-03T02:00:23.349Z,7.95
2022-11-03T02:02:51.105Z,7.92
2022-11-03T02:05:20.043Z,7.95
2022-11-03T02:07:59.422Z,7.97
2022-11-03T02:10:26.552Z,7.95
2022-11-03T02:12:53.985Z,7.92
2022-11-03T02:15:22.476Z,7.93
2022-11-03T02:17:52.534Z,7.91
2022-11-03T02:20:24.250Z,7.94
2022-11-03T02:23:28.504Z,7.94
2022-11-03T02:25:59.223Z,7.95
2022-11-03T02:28:29.682Z,7.94
2022-11-03T02:31:18.404Z,7.91
2022-11-03T02:33:58.048Z,7.86
2022-11-03T02:36:35.318Z,7.78
2022-11-03T02:39:19.064Z,7.82
2022-11-03T02:41:48.595Z,7.86
2022-11-03T02:44:18.625Z,7.77
2022-11-03T02:46:49.303Z,7.83
2022-11-03T02:49:16.903Z,7.81
2022-11-03T02:51:43.915Z,7.83
2022-11-03T02:54:20.910Z,7.84
2022-11-03T02:56:56.110Z,7.83
2022-11-03T03:00:09.694Z,7.86
2022-11-03T03:02:46.554Z,7.85
2022-11-03T03:05:16.863Z,7.83
2022-11-03T03:07:46.345Z,7.82
2022-11-03T03:10:20.384Z,7.80
2022-11-03T03:12:51.615Z,7.81
2022-11-03T03:15:22.868Z,7.78
2022-11-03T03:17:54.188Z,7.75
2022-11-03T03:20:27.102Z,7.75
2022-11-03T03:22:59.215Z,7.75
2022-11-03T03:25:35.230Z,7.70
2022-11-03T03:28:19.702Z,7.70
2022-11-03T03:30:49.212Z,7.70
2022-11-03T03:33:18.642Z,7.66
2022-11-03T03:35:49.306Z,7.62
2022-11-03T03:38:23.216Z,7.61
2022-11-03T03:40:53.984Z,7.59
2022-11-03T03:43:24.353Z,7.53
2022-11-03T03:45:52.819Z,7.49
2022-11-03T03:48:20.431Z,7.46
2022-11-03T03:50:50.034Z,7.38
2022-11-03T03:53:19.538Z,7.38
2022-11-03T03:55:49.705Z,7.36
2022-11-03T03:58:17.773Z,7.37
2022-11-03T04:00:45.279Z,7.37
2022-11-03T04:03:18.107Z,7.36
2022-11-03T04:05:45.914Z,7.36
2022-11-03T04:08:14.812Z,7.30
2022-11-03T04:11:01.825Z,7.31
2022-11-03T04:13:47.704Z,7.33
2022-11-03T04:16:33.702Z,7.24
2022-11-03T04:19:19.505Z,7.29
2022-11-03T04:22:05.153Z,7.24
2022-11-03T04:24:32.396Z,7.20
2022-11-03T04:27:05.784Z,7.21
2022-11-03T04:29:32.995Z,7.18
2022-11-03T04:32:00.145Z,7.22
2022-11-03T04:34:27.225Z,7.26
2022-11-03T04:36:54.344Z,7.25
2022-11-03T04:39:21.443Z,7.22
2022-11-03T04:41:48.671Z,7.23
2022-11-03T04:44:17.063Z,7.22
2022-11-03T04:46:46.845Z,7.17
2022-11-03T04:49:22.627Z,7.18
2022-11-03T04:51:50.504Z,7.16
2022-11-03T04:54:21.814Z,7.14
2022-11-03T04:56:49.059Z,7.12
2022-11-03T04:59:17.494Z,7.12
2022-11-03T05:01:46.029Z,7.11
2022-11-03T05:04:16.712Z,7.08
2022-11-03T05:06:53.865Z,7.06
2022-11-03T05:09:26.748Z,7.02
2022-11-03T05:11:54.511Z,7.03
2022-11-03T05:14:24.905Z,7.01
2022-11-03T05:16:54.033Z,6.97
2022-11-03T05:19:25.084Z,6.95
2022-11-03T05:21:54.927Z,6.95
2022-11-03T05:24:26.251Z,6.91
2022-11-03T05:26:56.290Z,6.89
2022-11-03T05:29:25.743Z,6.90
2022-11-03T05:31:54.340Z,6.86
2022-11-03T05:34:30.725Z,6.81
2022-11-03T05:37:25.864Z,6.77
2022-11-03T05:39:57.597Z,6.69
2022-11-03T05:42:32.346Z,6.66
2022-11-03T05:45:02.303Z,6.60
2022-11-03T05:47:39.161Z,6.56
2022-11-03T05:50:35.753Z,6.58
2022-11-03T05:53:25.384Z,6.54
2022-11-03T05:55:52.736Z,6.54
2022-11-03T05:58:27.763Z,6.50
2022-11-03T06:00:55.576Z,6.52
2022-11-03T06:03:31.421Z,6.51
2022-11-03T06:06:00.252Z,6.54
2022-11-03T06:08:33.853Z,6.52
2022-11-03T06:11:03.656Z,6.54
2022-11-03T06:13:35.318Z,6.55
2022-11-03T06:16:26.625Z,6.59
2022-11-03T06:18:53.743Z,6.47
2022-11-03T06:21:24.735Z,6.64
2022-11-03T06:23:53.348Z,6.68
2022-11-03T06:26:27.458Z,6.65
2022-11-03T06:28:55.903Z,6.71
2022-11-03T06:31:31.937Z,6.69
2022-11-03T06:33:59.649Z,6.73
2022-11-03T06:36:30.708Z,6.74
2022-11-03T06:39:03.470Z,6.81
2022-11-03T06:41:36.350Z,6.83
2022-11-03T06:44:30.095Z,6.88
2022-11-03T06:47:01.797Z,6.90
2022-11-03T06:49:31.355Z,6.89
2022-11-03T06:52:02.835Z,6.93
2022-11-03T06:54:29.992Z,6.98
2022-11-03T06:56:57.146Z,7.03
2022-11-03T06:59:25.028Z,7.03
2022-11-03T07:01:55.644Z,7.03
2022-11-03T07:04:28.847Z,7.08
2022-11-03T07:07:00.746Z,7.09
2022-11-03T07:09:28.179Z,7.09
2022-11-03T07:12:01.094Z,7.17
2022-11-03T07:14:31.515Z,7.23
2022-11-03T07:17:02.866Z,7.21
2022-11-03T07:19:34.638Z,7.24
2022-11-03T07:22:05.944Z,7.22
2022-11-03T07:24:41.194Z,7.29
2022-11-03T07:27:11.236Z,7.31
2022-11-03T07:29:38.385Z,7.32
2022-11-03T07:32:21.811Z,7.39
2022-11-03T07:34:50.617Z,7.47
2022-11-03T07:37:21.794Z,7.58
2022-11-03T07:39:51.035Z,7.66
2022-11-03T07:42:21.185Z,7.70
2022-11-03T07:44:50.026Z,7.74
2022-11-03T07:47:26.074Z,7.82
2022-11-03T07:49:55.305Z,7.87
2022-11-03T07:52:26.367Z,8.00
2022-11-03T07:54:57.405Z,8.12
2022-11-03T07:57:31.605Z,8.18
2022-11-03T08:00:08.907Z,8.49
2022-11-03T08:02:43.412Z,8.66
2022-11-03T08:05:10.935Z,8.84
2022-11-03T08:07:38.257Z,9.06
2022-11-03T08:10:07.597Z,9.27
2022-11-03T08:12:34.827Z,9.45
2022-11-03T08:15:01.999Z,9.61
2022-11-03T08:17:29.075Z,9.76
2022-11-03T08:19:56.301Z,9.93
2022-11-03T08:22:26.161Z,10.08
2022-11-03T08:24:53.765Z,10.24
2022-11-03T08:27:21.056Z,10.31
2022-11-03T08:29:48.533Z,10.36
2022-11-03T08:32:15.693Z,10.39
2022-11-03T08:34:42.818Z,10.37
2022-11-03T08:37:09.850Z,10.53
2022-11-03T08:39:37.285Z,10.61
2022-11-03T08:42:04.492Z,10.74
2022-11-03T08:44:31.656Z,10.81
2022-11-03T08:46:58.860Z,10.87
2022-11-03T08:49:26.213Z,10.94
2022-11-03T08:51:53.359Z,11.01
2022-11-03T08:54:20.546Z,11.06
2022-11-03T08:56:49.122Z,11.07
2022-11-03T08:59:18.328Z,11.09
2022-11-03T09:01:45.675Z,11.07
2022-11-03T09:04:12.950Z,10.97
2022-11-03T09:06:41.493Z,10.91
2022-11-03T09:11:55.769Z,10.93
2022-11-03T09:14:22.989Z,10.94
2022-11-03T09:16:50.163Z,10.93
2022-11-03T09:19:17.384Z,11.00
2022-11-03T09:21:44.569Z,11.05
2022-11-03T09:24:11.697Z,11.09
2022-11-03T09:26:38.946Z,11.14
2022-11-03T09:29:06.113Z,11.14
2022-11-03T09:31:33.435Z,11.17
2022-11-03T09:34:00.528Z,11.21
2022-11-03T09:36:27.627Z,11.22
2022-11-03T09:38:54.713Z,11.18
2022-11-03T09:41:27.745Z,11.21
2022-11-03T09:44:03.022Z,11.20
2022-11-03T09:46:30.805Z,11.22
2022-11-03T09:48:59.798Z,11.22
2022-11-03T09:51:28.281Z,11.24
2022-11-03T09:54:02.149Z,11.28
2022-11-03T09:56:30.513Z,11.17
2022-11-03T09:58:57.692Z,11.35
2022-11-03T10:01:25.291Z,11.39
2022-11-03T10:03:52.984Z,11.45
2022-11-03T10:06:21.540Z,11.46
2022-11-03T10:08:49.628Z,11.50
2022-11-03T10:11:16.774Z,11.58
2022-11-03T10:13:50.614Z,11.64
2022-11-03T10:16:21.348Z,11.73
2022-11-03T10:18:49.705Z,11.78
2022-11-03T10:21:26.218Z,11.83
2022-11-03T10:23:53.372Z,11.85
2022-11-03T10:26:21.035Z,11.83
2022-11-03T10:29:05.194Z,11.88
2022-11-03T10:31:33.946Z,11.87
2022-11-03T10:34:01.224Z,11.88
2022-11-03T10:36:31.265Z,11.87
2022-11-03T10:38:59.114Z,11.87
2022-11-03T10:41:30.675Z,11.85
2022-11-03T10:44:04.661Z,11.84
2022-11-03T10:49:21.121Z,11.87
2022-11-03T10:51:51.565Z,11.91
2022-11-03T10:54:21.811Z,11.93
2022-11-03T10:56:49.762Z,11.90
2022-11-03T10:59:22.814Z,11.91
2022-11-03T11:01:50.037Z,11.90
2022-11-03T11:04:19.222Z,11.90
2022-11-03T11:06:47.069Z,11.90
2022-11-03T11:09:20.060Z,11.89
2022-11-03T11:12:01.230Z,11.91
2022-11-03T11:14:28.504Z,11.91
2022-11-03T11:16:57.553Z,11.92
2022-11-03T11:19:26.933Z,11.93
2022-11-03T11:21:53.943Z,11.96
2022-11-03T11:24:45.676Z,11.97
2022-11-03T11:27:45.194Z,12.00
2022-11-03T11:30:21.072Z,12.04
2022-11-03T11:32:56.978Z,12.05
2022-11-03T11:35:24.111Z,12.05
2022-11-03T11:37:51.327Z,12.09
2022-11-03T11:40:24.304Z,12.11
2022-11-03T11:43:06.897Z,12.16
2022-11-03T11:46:11.778Z,12.20
2022-11-03T11:48:38.913Z,12.19
2022-11-03T11:51:11.454Z,12.28
2022-11-03T11:53:41.633Z,12.31
2022-11-03T11:56:18.727Z,12.32
2022-11-03T11:58:49.742Z,12.33
2022-11-03T12:01:34.827Z,12.32
2022-11-03T12:04:31.922Z,12.33
2022-11-03T12:06:59.713Z,12.35
2022-11-03T12:09:28.327Z,12.41
2022-11-03T12:12:05.219Z,12.43
2022-11-03T12:14:37.119Z,12.46
2022-11-03T12:17:19.403Z,12.47
2022-11-03T12:19:54.457Z,12.50
2022-11-03T12:22:24.435Z,12.56
2022-11-03T12:24:58.201Z,12.61
2022-11-03T12:27:25.363Z,12.64
2022-11-03T12:29:54.500Z,12.69
2022-11-03T12:32:37.396Z,12.69
2022-11-03T12:35:06.119Z,12.69
2022-11-03T12:37:33.254Z,12.68
2022-11-03T12:40:00.773Z,12.68
2022-11-03T12:42:27.953Z,12.69
2022-11-03T12:44:55.145Z,12.63
2022-11-03T12:47:22.238Z,12.71
2022-11-03T12:49:49.708Z,12.70
2022-11-03T12:52:16.875Z,12.71
2022-11-03T12:54:43.980Z,12.72
2022-11-03T12:57:11.072Z,12.74
2022-11-03T12:59:38.174Z,12.74
2022-11-03T13:02:05.541Z,12.71
2022-11-03T13:04:32.785Z,12.68
2022-11-03T13:06:59.937Z,12.65
2022-11-03T13:09:27.062Z,12.65
2022-11-03T13:12:12.752Z,12.62
2022-11-03T13:14:43.212Z,12.63
2022-11-03T13:17:13.538Z,12.61
2022-11-03T13:19:40.725Z,12.62
2022-11-03T13:22:07.913Z,12.58
2022-11-03T13:24:34.994Z,12.55
2022-11-03T13:27:02.229Z,12.56
2022-11-03T13:29:34.924Z,12.53
2022-11-03T13:32:04.077Z,12.50
2022-11-03T13:34:31.969Z,12.49
2022-11-03T13:36:59.317Z,12.46
2022-11-03T13:39:26.970Z,12.40
2022-11-03T13:41:54.093Z,12.42
2022-11-03T13:44:21.595Z,12.38
2022-11-03T13:46:48.875Z,12.36
2022-11-03T13:49:59.290Z,12.34
2022-11-03T13:52:03.672Z,12.29
2022-11-03T14:00:07.195Z,12.15
2022-11-03T14:05:28.155Z,12.08
2022-11-03T14:07:55.187Z,12.05
2022-11-03T14:10:22.253Z,12.04
2022-11-03T14:12:49.415Z,11.96
2022-11-03T14:15:16.614Z,11.97
2022-11-03T14:17:43.666Z,11.91
2022-11-03T14:20:13.262Z,11.92
2022-11-03T14:22:41.115Z,11.86
2022-11-03T14:25:08.616Z,11.85
2022-11-03T14:27:35.810Z,11.81
2022-11-03T14:30:04.170Z,11.76
2022-11-03T14:32:31.386Z,11.73
2022-11-03T14:34:58.513Z,11.68
2022-11-03T14:37:25.944Z,11.59
2022-11-03T14:39:53.121Z,11.53
2022-11-03T14:42:20.394Z,11.46
2022-11-03T14:44:48.172Z,11.44
2022-11-03T14:47:21.801Z,11.38
2022-11-03T14:49:49.759Z,11.32
2022-11-03T14:52:18.002Z,11.25
2022-11-03T14:54:45.242Z,11.17
2022-11-03T14:57:12.467Z,11.09
2022-11-03T14:59:39.805Z,11.04
2022-11-03T15:02:07.544Z,11.00
2022-11-03T15:04:34.933Z,10.89
2022-11-03T15:07:02.223Z,10.89
2022-11-03T15:09:29.446Z,10.86
2022-11-03T15:11:56.672Z,10.81
2022-11-03T15:14:23.864Z,10.79
2022-11-03T15:16:51.077Z,10.71
2022-11-03T15:19:18.225Z,10.68
2022-11-03T15:21:45.461Z,10.64
2022-11-03T15:26:59.879Z,10.48
2022-11-03T15:29:27.078Z,10.48
2022-11-03T15:31:54.203Z,10.45
2022-11-03T15:34:21.318Z,10.44
2022-11-03T15:36:48.468Z,10.41
2022-11-03T15:39:16.257Z,10.32
2022-11-03T15:41:43.317Z,10.33
2022-11-03T15:44:10.505Z,10.31
2022-11-03T15:46:37.662Z,10.28
2022-11-03T15:49:04.742Z,10.25
2022-11-03T15:51:32.074Z,10.20
2022-11-03T15:53:59.553Z,10.17
2022-11-03T15:56:27.659Z,10.09
2022-11-03T15:58:55.092Z,10.11
2022-11-03T16:01:22.659Z,10.06
2022-11-03T16:03:50.098Z,9.99
2022-11-03T16:06:17.177Z,10.01
2022-11-03T16:08:44.454Z,9.99
2022-11-03T16:11:11.547Z,9.97
2022-11-03T16:13:39.568Z,9.91
2022-11-03T16:16:07.305Z,9.91
2022-11-03T16:18:35.078Z,9.86
2022-11-03T16:21:02.366Z,9.81
2022-11-03T16:23:29.566Z,9.83
2022-11-03T16:25:56.936Z,9.79
2022-11-03T16:28:24.476Z,9.76
2022-11-03T16:30:54.600Z,9.74
2022-11-03T16:33:21.966Z,9.68
2022-11-03T16:35:49.845Z,9.64
2022-11-03T16:38:17.275Z,9.62
2022-11-03T16:40:44.678Z,9.58
2022-11-03T16:43:12.439Z,9.43
2022-11-03T16:45:39.734Z,9.53
2022-11-03T16:48:07.544Z,9.52
2022-11-03T16:50:35.618Z,9.50
2022-11-03T16:53:03.563Z,9.47
2022-11-03T16:55:30.693Z,9.43
2022-11-03T16:57:58.085Z,9.43
2022-11-03T17:00:25.395Z,9.41
2022-11-03T17:02:52.693Z,9.41
2022-11-03T17:05:21.355Z,9.40
2022-11-03T17:07:53.774Z,9.23
2022-11-03T17:10:22.536Z,9.36
2022-11-03T17:12:50.337Z,9.36
2022-11-03T17:15:17.798Z,9.33
2022-11-03T17:17:45.033Z,9.29
2022-11-03T17:20:12.937Z,9.28
2022-11-03T17:22:40.109Z,9.27
2022-11-03T17:25:12.145Z,9.27
2022-11-03T17:27:47.967Z,9.27
2022-11-03T17:30:23.013Z,9.25
2022-11-03T17:33:13.410Z,9.21
2022-11-03T17:35:42.278Z,9.21
2022-11-03T17:38:15.695Z,9.19
2022-11-03T17:40:45.646Z,9.16
2022-11-03T17:43:23.421Z,9.18
2022-11-03T17:45:50.813Z,9.13
2022-11-03T17:48:18.437Z,9.12
2022-11-03T17:50:48.456Z,9.11
2022-11-03T17:53:24.120Z,9.10
2022-11-03T17:56:23.273Z,9.05
2022-11-03T17:58:45.938Z,8.99
2022-11-03T18:01:19.636Z,9.01
2022-11-03T18:03:46.825Z,9.00
2022-11-03T18:06:19.594Z,8.94
2022-11-03T18:08:48.377Z,8.94
2022-11-03T18:11:42.785Z,8.94
2022-11-03T18:14:09.985Z,8.87
2022-11-03T18:16:37.441Z,8.81
2022-11-03T18:19:04.793Z,8.87
2022-11-03T18:21:32.004Z,8.86
2022-11-03T18:23:59.339Z,8.84
2022-11-03T18:26:27.487Z,8.86
2022-11-03T18:28:54.862Z,8.82
2022-11-03T18:31:33.731Z,8.85
2022-11-03T18:34:05.466Z,8.85
2022-11-03T18:36:36.624Z,8.83
2022-11-03T18:39:04.943Z,8.82
2022-11-03T18:41:41.112Z,8.79
2022-11-03T18:44:25.143Z,8.77
2022-11-03T18:46:52.969Z,8.79
2022-11-03T18:49:20.411Z,8.79
2022-11-03T18:51:59.205Z,8.75
2022-11-03T18:54:30.889Z,8.74
2022-11-03T18:56:58.537Z,8.75
2022-11-03T18:59:31.099Z,8.74
2022-11-03T19:01:58.595Z,8.71
2022-11-03T19:04:25.768Z,8.71
2022-11-03T19:06:53.233Z,8.66
2022-11-03T19:09:24.735Z,8.65
2022-11-03T19:11:54.946Z,8.65
2022-11-03T19:14:34.824Z,8.67
2022-11-03T19:19:54.034Z,8.62
2022-11-03T19:22:23.036Z,8.57
2022-11-03T19:24:50.494Z,8.59
2022-11-03T19:27:23.036Z,8.59
2022-11-03T19:29:50.280Z,8.56
2022-11-03T19:32:25.950Z,8.57
2022-11-03T19:35:08.637Z,8.54
2022-11-03T19:37:36.583Z,8.54
2022-11-03T19:40:09.158Z,8.53
2022-11-03T19:42:39.879Z,8.49
2022-11-03T19:45:08.045Z,8.49
2022-11-03T19:47:44.433Z,8.50
2022-11-03T19:50:28.894Z,8.49
2022-11-03T19:53:03.905Z,8.49
2022-11-03T19:55:34.509Z,8.49
2022-11-03T19:58:17.915Z,8.48
2022-11-03T20:00:46.330Z,8.46
2022-11-03T20:03:14.295Z,8.48
2022-11-03T20:05:46.628Z,8.47
2022-11-03T20:08:19.791Z,8.42
2022-11-03T20:10:48.326Z,8.42
2022-11-03T20:13:18.430Z,8.42
2022-11-03T20:15:45.784Z,8.42
2022-11-03T20:18:13.629Z,8.35
2022-11-03T20:20:42.143Z,8.39
2022-11-03T20:23:25.882Z,8.36
2022-11-03T20:25:54.016Z,8.34
2022-11-03T20:28:25.377Z,8.34
2022-11-03T20:30:53.861Z,8.36
2022-11-03T20:33:22.964Z,8.37
2022-11-03T20:35:52.624Z,8.34
2022-11-03T20:38:21.086Z,8.32
2022-11-03T20:40:51.534Z,8.29
2022-11-03T20:43:29.423Z,8.32
2022-11-03T20:45:57.351Z,8.23
2022-11-03T20:48:25.004Z,8.28
2022-11-03T20:50:53.460Z,8.25
2022-11-03T20:53:23.276Z,8.24
2022-11-03T20:55:51.386Z,8.19
2022-11-03T20:58:18.745Z,8.22
2022-11-03T21:00:47.984Z,8.22
2022-11-03T21:03:38.160Z,8.23
2022-11-03T21:06:12.915Z,8.18
2022-11-03T21:08:40.229Z,8.18
2022-11-03T21:11:25.117Z,8.17
2022-11-03T21:13:54.809Z,8.03
2022-11-03T21:16:41.350Z,8.16
2022-11-03T21:19:37.088Z,8.17
2022-11-03T21:22:51.436Z,8.17
2022-11-03T21:25:04.936Z,8.17
2022-11-03T21:27:32.106Z,8.17
2022-11-03T21:30:00.234Z,8.20
2022-11-03T21:32:27.521Z,8.19
2022-11-03T21:34:54.616Z,8.17
2022-11-03T21:37:21.797Z,8.15
2022-11-03T21:39:48.925Z,8.07
2022-11-03T21:42:35.384Z,8.15
2022-11-03T21:45:02.716Z,8.13
2022-11-03T21:47:30.015Z,8.14
2022-11-03T21:49:57.394Z,8.14
2022-11-03T21:52:33.738Z,8.13
2022-11-03T21:55:02.618Z,8.20
2022-11-03T21:57:30.693Z,8.19
2022-11-03T22:00:01.234Z,8.22
2022-11-03T22:02:30.264Z,8.23
2022-11-03T22:04:58.258Z,8.26
2022-11-03T22:07:25.573Z,8.30
2022-11-03T22:09:52.778Z,8.31
2022-11-03T22:12:19.965Z,8.34
2022-11-03T22:15:06.012Z,8.31
2022-11-03T22:17:33.225Z,8.40
2022-11-03T22:20:18.915Z,8.42
2022-11-03T22:23:04.453Z,8.41
2022-11-03T22:25:50.054Z,8.42
2022-11-03T22:28:17.537Z,8.46
2022-11-03T22:31:03.296Z,8.49
2022-11-03T22:33:30.595Z,8.50
2022-11-03T22:36:21.559Z,8.48
2022-11-03T22:39:07.984Z,8.53
2022-11-03T22:41:54.890Z,8.57
2022-11-03T22:44:40.463Z,8.57
2022-11-03T22:47:08.527Z,8.57
2022-11-03T22:49:36.161Z,8.59
2022-11-03T22:52:03.582Z,8.57
2022-11-03T22:54:30.886Z,8.61
2022-11-03T22:56:58.214Z,8.63
2022-11-03T22:59:25.416Z,8.62
2022-11-03T23:01:52.957Z,8.66
2022-11-03T23:04:20.456Z,8.70
2022-11-03T23:06:47.678Z,8.72
2022-11-03T23:09:14.753Z,8.75
2022-11-03T23:11:41.995Z,8.74
2022-11-03T23:14:11.294Z,8.76
2022-11-03T23:16:42.823Z,8.75
2022-11-03T23:19:33.972Z,8.73
2022-11-03T23:22:01.883Z,8.74
2022-11-03T23:24:47.807Z,8.76
2022-11-03T23:27:14.945Z,8.75
2022-11-03T23:29:42.025Z,8.60
2022-11-03T23:32:09.221Z,8.74
2022-11-03T23:34:36.275Z,8.78
2022-11-03T23:37:03.702Z,8.80
2022-11-03T23:39:30.720Z,8.78
2022-11-03T23:41:57.933Z,8.79
2022-11-03T23:44:25.185Z,8.75
2022-11-03T23:47:10.634Z,8.79
2022-11-03T23:49:37.710Z,8.80
2022-11-03T23:52:04.740Z,8.78
2022-11-03T23:54:31.855Z,8.80
2022-11-03T23:57:17.697Z,8.79
